Ostatnio dodane

Tytuł Autor Odpowiedzi Last Postikona sortowania Odsłon łącznie Odsłon dzisiaj
USBasp problem z programowaniem Eagle 8 2014-10-05 05:49 4 495 1 397
Bascom - Sterowanie wyjściami z impulsatora? Mirix 7 2014-10-01 15:49 4 217 2 253
RFM12B - łatwiejsze niż myślisz EDC 2014-09-15 00:56 5 561 3 077
Przerywacz kierunkowskazów APE 13A - nie działa poprawnie po naprawie Motorpal 2 2014-09-11 13:26 2 132 1 346
Cyfrowy Przedwzmacniacz mirley 102 2014-08-28 21:21 39 512 8 592
Sterownik C.O. z monitoringiem EDC 3 2014-08-27 16:35 2 902 1 620
AVR Odtwarzacz wav demsy1 2 2014-08-16 12:42 2 063 1 264
problem ze wzmacniaczem na Tda 1905 Misiek 6 2014-08-09 20:52 11 504 2 017
Timer+pomiar temperatury marekszy 14 2014-07-19 20:50 2 288 1 352
Przetwornik ADC maro 7 2014-07-16 10:11 2 443 1 366
Mirley.net Uruchomiona mirley 2014-07-16 08:05 2 933 1 667
Przerwanie operacji WAIT bascom barni 1 2014-07-10 14:08 2 443 1 490
Nowy soft przez USB/RS232 czyli BOOTLOADER EDC 13 2014-07-03 08:34 4 883 2 979
Zapis i odczyt do eeprom demsy1 6 2014-06-27 11:35 2 517 1 489
Regulator PWM DC 15A Chester 15 2014-06-25 18:00 4 637 2 403
AVT1460 Chester 2 2014-06-25 17:57 2 020 1 227
Bascom-PWM nanab 88 2014-06-24 05:21 36 432 6 977
Przerwania INT0 i INT1 jacek1987-1987 21 2014-06-22 22:04 4 191 2 398
Zwiększenie zasięgu działania czujnika na fototranzystorze i diodzie IR jacek1987-1987 17 2014-06-17 22:46 4 073 2 462
Big Endian w atmega32 wchpikus 2 2014-06-14 11:57 3 164 1 796
Modyfikacja kierownicy PC MSideWinder FFB (pomysły) Radzioo 5 2014-06-13 18:15 5 203 2 970
termometr_uniwersalny wersja na 2051 kaktus 4 2014-06-07 16:29 3 938 1 287
libs description w Eagle kaktus 1 2014-06-07 16:12 3 136 1 846
Unitra Fonica PW 9013 pali się Radek988 2 2014-06-07 08:50 5 684 1 924
J-057 Wzmacniacz 50W mono. paweł182 28 2014-06-06 22:09 2 821 1 626